createdAt,value
2019-04-04T00:00:16.252Z,11.9
2019-04-04T00:03:15.465Z,11.7
2019-04-04T00:06:15.229Z,11.7
2019-04-04T00:09:15.151Z,11.7
2019-04-04T00:12:15.467Z,11.8
2019-04-04T00:15:15.522Z,11.8
2019-04-04T00:18:15.926Z,11.9
2019-04-04T00:21:15.697Z,12.0
2019-04-04T00:24:15.268Z,12.1
2019-04-04T00:27:15.679Z,12.1
2019-04-04T00:30:16.136Z,12.2
2019-04-04T00:33:15.369Z,12.1
2019-04-04T00:36:14.978Z,12.0
2019-04-04T00:39:14.995Z,12.0
2019-04-04T00:42:17.052Z,12.0
2019-04-04T00:45:15.278Z,11.8
2019-04-04T00:48:15.606Z,11.6
2019-04-04T00:51:17.226Z,11.7
2019-04-04T00:54:15.773Z,11.8
2019-04-04T00:57:17.216Z,11.9
2019-04-04T01:00:15.140Z,11.8
2019-04-04T01:03:15.491Z,11.8
2019-04-04T01:06:15.148Z,11.9
2019-04-04T01:09:15.466Z,12.0
2019-04-04T01:12:15.798Z,11.9
2019-04-04T01:15:15.869Z,12.1
2019-04-04T01:18:15.464Z,12.0
2019-04-04T01:21:15.369Z,12.0
2019-04-04T01:24:15.161Z,12.1
2019-04-04T01:27:15.420Z,12.1
2019-04-04T01:30:15.035Z,12.2
2019-04-04T01:33:15.751Z,12.1
2019-04-04T01:36:14.899Z,12.2
2019-04-04T01:39:15.857Z,12.2
2019-04-04T01:42:15.175Z,12.2
2019-04-04T01:45:15.839Z,12.2
2019-04-04T01:48:18.444Z,12.1
2019-04-04T01:51:15.929Z,12.1
2019-04-04T01:54:15.725Z,12.0
2019-04-04T01:57:15.685Z,12.1
2019-04-04T02:00:15.810Z,12.1
2019-04-04T02:03:15.522Z,12.1
2019-04-04T02:06:16.347Z,12.0
2019-04-04T02:09:15.559Z,12.1
2019-04-04T02:12:15.705Z,12.2
2019-04-04T02:15:15.159Z,12.2
2019-04-04T02:18:15.723Z,12.3
2019-04-04T02:21:15.911Z,12.2
2019-04-04T02:24:15.304Z,12.3
2019-04-04T02:27:15.882Z,12.2
2019-04-04T02:30:16.108Z,12.2
2019-04-04T02:33:15.091Z,12.3
2019-04-04T02:36:16.708Z,12.2
2019-04-04T02:39:15.212Z,12.0
2019-04-04T02:42:15.696Z,12.1
2019-04-04T02:45:15.560Z,12.1
2019-04-04T02:48:15.378Z,12.1
2019-04-04T02:51:15.396Z,12.2
2019-04-04T02:54:15.942Z,12.2
2019-04-04T02:57:15.130Z,12.3
2019-04-04T03:00:15.507Z,12.1
2019-04-04T03:03:15.183Z,12.1
2019-04-04T03:06:15.034Z,12.1
2019-04-04T03:09:15.583Z,12.1
2019-04-04T03:12:15.026Z,12.0
2019-04-04T03:15:15.566Z,12.0
2019-04-04T03:18:15.012Z,12.0
2019-04-04T03:21:15.580Z,11.9
2019-04-04T03:24:16.280Z,11.9
2019-04-04T03:27:16.686Z,12.0
2019-04-04T03:30:17.170Z,12.0
2019-04-04T03:33:20.006Z,11.6
2019-04-04T03:36:15.199Z,11.6
2019-04-04T03:39:19.119Z,11.7
2019-04-04T03:42:15.515Z,11.8
2019-04-04T03:45:15.264Z,11.7
2019-04-04T03:48:17.493Z,11.8
2019-04-04T03:51:15.171Z,11.8
2019-04-04T03:54:14.988Z,11.8
2019-04-04T03:57:15.068Z,11.7
2019-04-04T04:00:15.544Z,11.8
2019-04-04T04:03:15.562Z,11.9
2019-04-04T04:06:15.406Z,12.0
2019-04-04T04:09:15.424Z,12.0
2019-04-04T04:12:15.351Z,12.0
2019-04-04T04:15:15.857Z,11.7
2019-04-04T04:18:15.328Z,11.5
2019-04-04T04:21:15.925Z,11.4
2019-04-04T04:24:15.824Z,11.6
2019-04-04T04:27:15.751Z,11.0
2019-04-04T04:30:15.603Z,11.0
2019-04-04T04:33:15.857Z,10.9
2019-04-04T04:36:16.419Z,11.0
2019-04-04T04:39:15.306Z,11.1
2019-04-04T04:42:15.953Z,11.1
2019-04-04T04:45:20.177Z,11.2
2019-04-04T04:48:15.441Z,11.2
2019-04-04T04:51:24.559Z,11.2
2019-04-04T04:54:15.275Z,11.2
2019-04-04T04:57:28.725Z,11.2
2019-04-04T05:00:16.655Z,11.2
2019-04-04T05:03:15.611Z,11.2
2019-04-04T05:06:15.851Z,11.1
2019-04-04T05:09:15.907Z,11.0
2019-04-04T05:12:15.640Z,11.0
2019-04-04T05:15:15.273Z,11.0
2019-04-04T05:18:16.413Z,11.1
2019-04-04T05:21:24.501Z,11.1
2019-04-04T05:24:16.063Z,11.1
2019-04-04T05:27:15.631Z,11.1
2019-04-04T05:30:16.605Z,11.2
2019-04-04T05:33:15.176Z,11.2
2019-04-04T05:36:15.537Z,11.2
2019-04-04T05:39:17.699Z,11.2
2019-04-04T05:42:15.860Z,11.2
2019-04-04T05:45:15.199Z,11.2
2019-04-04T05:48:15.149Z,11.4
2019-04-04T05:51:15.973Z,11.4
2019-04-04T05:54:16.035Z,11.4
2019-04-04T05:57:15.090Z,11.4
2019-04-04T06:00:15.388Z,11.4
2019-04-04T06:03:15.866Z,11.4
2019-04-04T06:06:15.099Z,11.5
2019-04-04T06:09:15.274Z,11.4
2019-04-04T06:12:15.984Z,11.5
2019-04-04T06:15:15.030Z,11.5
2019-04-04T06:18:14.968Z,11.6
2019-04-04T06:21:15.233Z,11.5
2019-04-04T06:24:15.850Z,11.5
2019-04-04T06:27:15.700Z,11.7
2019-04-04T06:30:15.971Z,11.7
2019-04-04T06:33:15.262Z,11.8
2019-04-04T06:36:17.526Z,11.8
2019-04-04T06:39:15.111Z,12.0
2019-04-04T06:42:15.726Z,11.4
2019-04-04T06:45:16.143Z,11.5
2019-04-04T06:48:15.127Z,11.7
2019-04-04T06:51:15.469Z,11.5
2019-04-04T06:54:15.883Z,11.3
2019-04-04T06:57:15.041Z,11.2
2019-04-04T07:00:16.598Z,11.5
2019-04-04T07:03:15.224Z,11.9
2019-04-04T07:06:15.652Z,12.2
2019-04-04T07:09:18.227Z,11.8
2019-04-04T07:12:22.280Z,11.9
2019-04-04T07:15:16.063Z,11.8
2019-04-04T07:18:15.384Z,11.5
2019-04-04T07:21:15.811Z,11.7
2019-04-04T07:24:15.020Z,11.9
2019-04-04T07:27:16.181Z,11.7
2019-04-04T07:30:15.503Z,11.9
2019-04-04T07:33:15.308Z,12.2
2019-04-04T07:36:15.617Z,12.0
2019-04-04T07:39:16.026Z,11.9
2019-04-04T07:42:15.873Z,12.0
2019-04-04T07:45:15.258Z,12.0
2019-04-04T07:48:17.646Z,12.1
2019-04-04T07:51:15.282Z,11.9
2019-04-04T07:54:15.523Z,11.9
2019-04-04T07:57:17.326Z,11.9
2019-04-04T08:00:15.418Z,12.1
2019-04-04T08:03:15.700Z,12.3
2019-04-04T08:06:20.120Z,12.1
2019-04-04T08:09:15.835Z,12.3
2019-04-04T08:12:14.969Z,12.2
2019-04-04T08:15:15.214Z,12.1
2019-04-04T08:18:16.062Z,12.1
2019-04-04T08:21:15.062Z,12.4
2019-04-04T08:24:15.450Z,12.1
2019-04-04T08:27:15.787Z,12.1
2019-04-04T08:30:15.487Z,12.3
2019-04-04T08:33:15.932Z,12.3
2019-04-04T08:36:15.055Z,12.3
2019-04-04T08:39:15.393Z,12.1
2019-04-04T08:42:15.695Z,12.3
2019-04-04T08:45:15.059Z,12.3
2019-04-04T08:48:15.106Z,12.2
2019-04-04T08:51:15.350Z,12.0
2019-04-04T08:54:15.873Z,12.1
2019-04-04T08:57:15.463Z,12.2
2019-04-04T09:00:15.829Z,12.2
2019-04-04T09:03:15.111Z,12.1
2019-04-04T09:06:15.292Z,10.6
2019-04-04T09:09:15.442Z,10.4
2019-04-04T09:12:15.205Z,10.4
2019-04-04T09:15:15.116Z,10.4
2019-04-04T09:18:15.467Z,10.3
2019-04-04T09:21:15.936Z,10.6
2019-04-04T09:24:15.059Z,10.3
2019-04-04T09:27:15.300Z,10.2
2019-04-04T09:30:15.679Z,10.2
2019-04-04T09:33:15.557Z,10.2
2019-04-04T09:36:15.680Z,10.2
2019-04-04T09:39:15.061Z,10.3
2019-04-04T09:42:15.186Z,10.2
2019-04-04T09:45:15.565Z,10.2
2019-04-04T09:48:15.731Z,10.2
2019-04-04T09:51:15.178Z,10.2
2019-04-04T09:54:15.335Z,10.1
2019-04-04T09:57:15.573Z,10.1
2019-04-04T10:00:15.596Z,10.1
2019-04-04T10:03:15.928Z,10.0
2019-04-04T10:06:15.852Z,10.0
2019-04-04T10:09:16.236Z,10.0
2019-04-04T10:12:15.267Z,10.0
2019-04-04T10:15:15.685Z,10.0
2019-04-04T10:18:15.989Z,9.9
2019-04-04T10:21:15.254Z,9.8
2019-04-04T10:24:15.798Z,9.7
2019-04-04T10:27:15.060Z,9.6
2019-04-04T10:30:15.121Z,9.6
2019-04-04T10:33:15.695Z,9.6
2019-04-04T10:36:15.727Z,9.8
2019-04-04T10:39:28.026Z,9.8
2019-04-04T10:42:15.846Z,9.8
2019-04-04T10:45:15.158Z,9.8
2019-04-04T10:48:15.233Z,9.8
2019-04-04T10:51:15.281Z,9.8
2019-04-04T10:54:15.605Z,9.9
2019-04-04T10:57:15.178Z,10.0
2019-04-04T11:00:15.898Z,10.0
2019-04-04T11:03:15.227Z,10.0
2019-04-04T11:06:15.234Z,10.0
2019-04-04T11:09:15.446Z,10.1
2019-04-04T11:12:15.861Z,10.2
2019-04-04T11:15:15.748Z,10.3
2019-04-04T11:18:14.932Z,10.4
2019-04-04T11:21:15.035Z,10.4
2019-04-04T11:24:15.717Z,10.5
2019-04-04T11:27:17.552Z,10.3
2019-04-04T11:30:15.638Z,10.2
2019-04-04T11:33:16.000Z,10.3
2019-04-04T11:36:15.527Z,10.4
2019-04-04T11:39:15.528Z,10.5
2019-04-04T11:42:15.556Z,10.7
2019-04-04T11:45:15.827Z,10.7
2019-04-04T11:48:15.156Z,10.8
2019-04-04T11:51:15.352Z,10.8
2019-04-04T11:54:15.842Z,10.8
2019-04-04T11:57:15.175Z,10.8
2019-04-04T12:00:15.272Z,10.9
2019-04-04T12:03:16.037Z,10.9
2019-04-04T12:06:15.026Z,10.9
2019-04-04T12:09:15.167Z,10.8
2019-04-04T12:12:15.201Z,10.8
2019-04-04T12:15:16.014Z,10.8
2019-04-04T12:18:15.271Z,10.7
2019-04-04T12:21:15.209Z,10.5
2019-04-04T12:24:15.417Z,10.5
2019-04-04T12:27:15.494Z,10.4
2019-04-04T12:30:15.448Z,10.4
2019-04-04T12:33:15.177Z,10.3
2019-04-04T12:36:24.018Z,10.3
2019-04-04T12:39:15.891Z,10.3
2019-04-04T12:42:15.364Z,10.3
2019-04-04T12:45:15.353Z,10.3
2019-04-04T12:48:15.261Z,10.3
2019-04-04T12:51:15.220Z,10.3
2019-04-04T12:54:15.277Z,10.3
2019-04-04T12:57:15.445Z,10.3
2019-04-04T13:00:15.328Z,10.3
2019-04-04T13:03:15.262Z,10.4
2019-04-04T13:06:15.253Z,10.3
2019-04-04T13:09:15.557Z,10.2
2019-04-04T13:12:15.441Z,10.2
2019-04-04T13:15:15.422Z,10.2
2019-04-04T13:18:15.622Z,10.2
2019-04-04T13:21:15.942Z,10.3
2019-04-04T13:24:15.957Z,10.3
2019-04-04T13:27:17.655Z,10.3
2019-04-04T13:30:15.836Z,10.3
2019-04-04T13:33:15.949Z,10.3
2019-04-04T13:36:15.852Z,10.3
2019-04-04T13:39:15.853Z,10.3
2019-04-04T13:42:15.846Z,10.3
2019-04-04T13:45:15.758Z,10.4
2019-04-04T13:48:15.885Z,10.5
2019-04-04T13:51:15.767Z,10.5
2019-04-04T13:54:15.762Z,10.5
2019-04-04T13:57:15.807Z,10.6
2019-04-04T14:00:15.846Z,10.5
2019-04-04T14:03:18.695Z,10.5
2019-04-04T14:06:15.735Z,10.4
2019-04-04T14:09:16.824Z,10.3
2019-04-04T14:12:15.870Z,10.3
2019-04-04T14:15:16.534Z,10.2
2019-04-04T14:18:16.992Z,10.3
2019-04-04T14:21:17.561Z,10.3
2019-04-04T14:24:16.547Z,10.4
2019-04-04T14:27:21.552Z,10.4
2019-04-04T14:30:16.932Z,10.5
2019-04-04T14:33:15.706Z,10.5
2019-04-04T14:36:15.815Z,10.5
2019-04-04T14:39:16.001Z,10.6
2019-04-04T14:42:15.159Z,10.7
2019-04-04T14:45:20.794Z,10.9
2019-04-04T14:48:15.582Z,11.0
2019-04-04T14:51:15.381Z,11.1
2019-04-04T14:54:15.209Z,11.3
2019-04-04T14:57:15.588Z,11.5
2019-04-04T15:00:15.971Z,11.6
2019-04-04T15:03:15.415Z,11.7
2019-04-04T15:06:15.452Z,11.7
2019-04-04T15:09:15.375Z,11.7
2019-04-04T15:12:15.284Z,11.7
2019-04-04T15:15:15.093Z,11.8
2019-04-04T15:18:15.452Z,11.9
2019-04-04T15:21:15.289Z,12.3
2019-04-04T15:24:15.237Z,12.7
2019-04-04T15:27:15.366Z,13.0
2019-04-04T15:30:15.019Z,13.3
2019-04-04T15:33:15.051Z,13.4
2019-04-04T15:36:15.749Z,13.5
2019-04-04T15:39:16.082Z,13.5
2019-04-04T15:42:15.400Z,13.3
2019-04-04T15:45:15.605Z,13.2
2019-04-04T15:48:15.337Z,13.0
2019-04-04T15:51:15.510Z,13.0
2019-04-04T15:54:15.338Z,12.9
2019-04-04T15:57:15.165Z,12.8
2019-04-04T16:00:15.922Z,12.7
2019-04-04T16:03:15.251Z,12.5
2019-04-04T16:06:15.366Z,12.3
2019-04-04T16:09:15.456Z,12.2
2019-04-04T16:12:15.584Z,12.2
2019-04-04T16:15:15.697Z,12.2
2019-04-04T16:18:15.126Z,12.2
2019-04-04T16:21:15.377Z,12.3
2019-04-04T16:24:15.869Z,12.2
2019-04-04T16:27:15.834Z,12.2
2019-04-04T16:30:15.147Z,12.1
2019-04-04T16:33:15.060Z,11.9
2019-04-04T16:36:15.441Z,11.8
2019-04-04T16:39:15.527Z,11.7
2019-04-04T16:42:15.675Z,11.6
2019-04-04T16:45:15.715Z,11.5
2019-04-04T16:48:15.120Z,11.4
2019-04-04T16:51:15.121Z,11.3
2019-04-04T16:54:15.028Z,11.3
2019-04-04T16:57:15.705Z,11.2
2019-04-04T17:00:15.885Z,11.2
2019-04-04T17:03:15.352Z,11.1
2019-04-04T17:06:15.768Z,11.0
2019-04-04T17:09:15.772Z,10.9
2019-04-04T17:12:15.685Z,10.9
2019-04-04T17:15:15.148Z,10.9
2019-04-04T17:18:16.503Z,10.9
2019-04-04T17:21:15.751Z,10.8
2019-04-04T17:24:15.170Z,10.8
2019-04-04T17:27:15.094Z,10.8
2019-04-04T17:30:15.148Z,10.8
2019-04-04T17:33:16.011Z,10.8
2019-04-04T17:36:15.848Z,10.7
2019-04-04T17:39:15.184Z,10.6
2019-04-04T17:42:28.117Z,10.5
2019-04-04T17:45:16.349Z,10.4
2019-04-04T17:48:15.913Z,10.4
2019-04-04T17:51:15.790Z,10.3
2019-04-04T17:54:15.335Z,10.3
2019-04-04T17:57:15.915Z,10.3
2019-04-04T18:00:15.174Z,10.3
2019-04-04T18:03:15.273Z,10.2
2019-04-04T18:06:15.943Z,10.2
2019-04-04T18:09:15.234Z,10.2
2019-04-04T18:12:17.012Z,10.2
2019-04-04T18:15:15.934Z,10.2
2019-04-04T18:18:15.622Z,10.2
2019-04-04T18:21:15.952Z,10.1
2019-04-04T18:24:15.030Z,10.1
2019-04-04T18:32:34.124Z,10.1
2019-04-04T18:33:46.023Z,10.1
2019-04-04T18:42:53.460Z,10.3
2019-04-04T18:51:06.244Z,10.5
2019-04-04T19:03:15.886Z,10.5
2019-04-04T19:06:14.963Z,10.5
2019-04-04T19:09:15.584Z,10.4
2019-04-04T19:12:15.917Z,10.4
2019-04-04T19:15:15.923Z,10.3
2019-04-04T19:18:15.203Z,10.2
2019-04-04T19:21:15.790Z,10.2
2019-04-04T19:24:15.897Z,10.1
2019-04-04T19:27:15.102Z,10.1
2019-04-04T19:30:16.250Z,10.0
2019-04-04T19:33:15.547Z,10.0
2019-04-04T19:36:15.874Z,10.0
2019-04-04T19:39:15.734Z,10.0
2019-04-04T19:42:15.252Z,10.0
2019-04-04T19:45:15.050Z,10.0
2019-04-04T19:48:15.960Z,10.0
2019-04-04T19:51:15.834Z,9.9
2019-04-04T19:54:15.180Z,9.9
2019-04-04T19:57:16.781Z,9.9
2019-04-04T20:00:15.799Z,9.8
2019-04-04T20:03:15.826Z,9.8
2019-04-04T20:06:15.170Z,9.8
2019-04-04T20:09:15.918Z,9.8
2019-04-04T20:12:15.969Z,9.8
2019-04-04T20:15:15.455Z,9.8
2019-04-04T20:18:15.408Z,9.8
2019-04-04T20:21:15.489Z,9.9
2019-04-04T20:24:14.914Z,9.8
2019-04-04T20:27:15.519Z,9.9
2019-04-04T20:30:16.112Z,9.9
2019-04-04T20:33:15.310Z,9.9
2019-04-04T20:36:15.405Z,9.9
2019-04-04T20:39:15.684Z,9.9
2019-04-04T20:42:15.776Z,9.9
2019-04-04T20:45:15.408Z,9.8
2019-04-04T20:48:15.779Z,9.8
2019-04-04T20:51:15.608Z,9.8
2019-04-04T20:54:15.627Z,9.8
2019-04-04T20:57:15.210Z,9.8
2019-04-04T21:00:15.627Z,9.8
2019-04-04T21:03:15.879Z,9.8
2019-04-04T21:06:15.783Z,9.8
2019-04-04T21:09:15.822Z,9.7
2019-04-04T21:12:15.798Z,9.7
2019-04-04T21:15:15.875Z,9.7
2019-04-04T21:18:15.486Z,9.7
2019-04-04T21:21:15.057Z,9.6
2019-04-04T21:24:15.787Z,9.6
2019-04-04T21:27:18.544Z,9.6
2019-04-04T21:30:15.392Z,9.6
2019-04-04T21:33:15.906Z,9.5
2019-04-04T21:36:15.745Z,9.5
2019-04-04T21:39:15.395Z,9.4
2019-04-04T21:42:15.542Z,9.4
2019-04-04T21:45:15.607Z,9.4
2019-04-04T21:48:15.049Z,9.3
2019-04-04T21:51:15.723Z,9.3
2019-04-04T21:54:15.410Z,9.3
2019-04-04T21:57:14.982Z,9.3
2019-04-04T22:00:15.955Z,9.2
2019-04-04T22:03:15.116Z,9.2
2019-04-04T22:06:15.066Z,9.2
2019-04-04T22:09:15.478Z,9.2
2019-04-04T22:12:15.203Z,9.2
2019-04-04T22:15:15.225Z,9.2
2019-04-04T22:18:15.838Z,9.7
2019-04-04T22:24:14.963Z,9.2
2019-04-04T22:27:15.677Z,9.0
2019-04-04T22:30:15.678Z,9.0
2019-04-04T22:33:15.332Z,9.0
2019-04-04T22:36:15.795Z,8.9
2019-04-04T22:39:15.664Z,8.9
2019-04-04T22:42:15.386Z,8.9
2019-04-04T22:45:15.960Z,8.9
2019-04-04T22:48:15.757Z,9.0
2019-04-04T22:54:15.140Z,9.0
2019-04-04T22:57:15.560Z,9.0
2019-04-04T23:00:15.468Z,9.0
2019-04-04T23:03:15.213Z,9.0
2019-04-04T23:06:15.742Z,9.0
2019-04-04T23:09:15.460Z,9.0
2019-04-04T23:12:15.881Z,9.0
2019-04-04T23:15:15.119Z,9.0
2019-04-04T23:18:15.386Z,9.0
2019-04-04T23:24:14.995Z,8.9
2019-04-04T23:27:15.541Z,8.9
2019-04-04T23:30:15.900Z,8.9
2019-04-04T23:33:14.955Z,8.9
2019-04-04T23:36:15.764Z,8.9
2019-04-04T23:39:15.099Z,8.9
2019-04-04T23:42:15.614Z,9.0
2019-04-04T23:45:15.417Z,9.0
2019-04-04T23:48:15.780Z,8.9
2019-04-04T23:51:15.395Z,9.0
2019-04-04T23:54:15.962Z,8.9
2019-04-04T23:57:15.760Z,8.9
